sensor_id;sensor_type;location;lat;lon;timestamp;temperature;humidity
1447;DHT22;717;51.522;7.266;2023-05-10T00:00:06;18.20;99.90
1447;DHT22;717;51.522;7.266;2023-05-10T00:02:37;18.10;99.90
1447;DHT22;717;51.522;7.266;2023-05-10T00:05:07;18.10;99.90
1447;DHT22;717;51.522;7.266;2023-05-10T00:07:36;18.00;99.90
1447;DHT22;717;51.522;7.266;2023-05-10T00:10:06;18.00;99.90
1447;DHT22;717;51.522;7.266;2023-05-10T00:12:35;18.00;99.90
1447;DHT22;717;51.522;7.266;2023-05-10T00:15:05;17.90;99.90
1447;DHT22;717;51.522;7.266;2023-05-10T00:17:34;17.80;99.90
1447;DHT22;717;51.522;7.266;2023-05-10T00:20:06;17.80;99.90
1447;DHT22;717;51.522;7.266;2023-05-10T00:22:35;17.80;99.90
1447;DHT22;717;51.522;7.266;2023-05-10T00:25:05;17.80;99.90
1447;DHT22;717;51.522;7.266;2023-05-10T00:27:34;17.80;99.90
1447;DHT22;717;51.522;7.266;2023-05-10T00:30:04;17.80;99.90
1447;DHT22;717;51.522;7.266;2023-05-10T00:32:33;17.80;99.90
1447;DHT22;717;51.522;7.266;2023-05-10T00:35:01;17.80;99.90
1447;DHT22;717;51.522;7.266;2023-05-10T00:37:32;17.90;99.90
1447;DHT22;717;51.522;7.266;2023-05-10T00:40:01;17.90;99.90
1447;DHT22;717;51.522;7.266;2023-05-10T00:42:30;17.90;99.90
1447;DHT22;717;51.522;7.266;2023-05-10T00:44:59;18.00;99.90
1447;DHT22;717;51.522;7.266;2023-05-10T00:47:27;17.90;99.90
1447;DHT22;717;51.522;7.266;2023-05-10T00:49:56;17.90;99.90
1447;DHT22;717;51.522;7.266;2023-05-10T00:52:26;17.90;99.90
1447;DHT22;717;51.522;7.266;2023-05-10T00:54:57;17.90;99.90
1447;DHT22;717;51.522;7.266;2023-05-10T00:57:26;17.90;99.90
1447;DHT22;717;51.522;7.266;2023-05-10T00:59:55;17.90;99.90
1447;DHT22;717;51.522;7.266;2023-05-10T01:02:24;17.90;99.90
1447;DHT22;717;51.522;7.266;2023-05-10T01:04:52;17.90;99.90
1447;DHT22;717;51.522;7.266;2023-05-10T01:07:21;17.90;99.90
1447;DHT22;717;51.522;7.266;2023-05-10T01:09:50;18.00;99.90
1447;DHT22;717;51.522;7.266;2023-05-10T01:12:21;18.00;99.90
1447;DHT22;717;51.522;7.266;2023-05-10T01:14:50;17.90;99.90
1447;DHT22;717;51.522;7.266;2023-05-10T01:17:19;17.90;99.90
1447;DHT22;717;51.522;7.266;2023-05-10T01:19:48;17.90;99.90
1447;DHT22;717;51.522;7.266;2023-05-10T01:22:36;17.90;99.90
1447;DHT22;717;51.522;7.266;2023-05-10T01:25:27;17.90;99.90
1447;DHT22;717;51.522;7.266;2023-05-10T01:31:26;18.00;99.90
1447;DHT22;717;51.522;7.266;2023-05-10T01:34:01;17.90;99.90
1447;DHT22;717;51.522;7.266;2023-05-10T01:36:32;17.90;99.90
1447;DHT22;717;51.522;7.266;2023-05-10T01:39:11;17.90;99.90
1447;DHT22;717;51.522;7.266;2023-05-10T01:41:43;17.90;99.90
1447;DHT22;717;51.522;7.266;2023-05-10T01:44:20;17.80;99.90
1447;DHT22;717;51.522;7.266;2023-05-10T01:46:57;17.90;99.90
1447;DHT22;717;51.522;7.266;2023-05-10T01:49:34;17.80;99.90
1447;DHT22;717;51.522;7.266;2023-05-10T01:52:08;17.80;99.90
1447;DHT22;717;51.522;7.266;2023-05-10T01:54:40;17.80;99.90
1447;DHT22;717;51.522;7.266;2023-05-10T01:57:11;17.80;99.90
1447;DHT22;717;51.522;7.266;2023-05-10T01:59:43;17.80;99.90
1447;DHT22;717;51.522;7.266;2023-05-10T02:02:15;17.80;99.90
1447;DHT22;717;51.522;7.266;2023-05-10T02:04:47;17.70;99.90
1447;DHT22;717;51.522;7.266;2023-05-10T02:07:18;17.70;99.90
1447;DHT22;717;51.522;7.266;2023-05-10T02:09:47;17.70;99.90
1447;DHT22;717;51.522;7.266;2023-05-10T02:12:17;17.70;99.90
1447;DHT22;717;51.522;7.266;2023-05-10T02:14:47;17.70;99.90
1447;DHT22;717;51.522;7.266;2023-05-10T02:17:16;17.80;99.90
1447;DHT22;717;51.522;7.266;2023-05-10T02:19:49;17.80;99.90
1447;DHT22;717;51.522;7.266;2023-05-10T02:22:20;17.80;99.90
1447;DHT22;717;51.522;7.266;2023-05-10T02:24:50;17.80;99.90
1447;DHT22;717;51.522;7.266;2023-05-10T02:27:19;17.80;99.90
1447;DHT22;717;51.522;7.266;2023-05-10T02:29:49;17.80;99.90
1447;DHT22;717;51.522;7.266;2023-05-10T02:32:19;17.90;99.90
1447;DHT22;717;51.522;7.266;2023-05-10T02:34:52;17.90;99.90
1447;DHT22;717;51.522;7.266;2023-05-10T02:37:22;17.90;99.90
1447;DHT22;717;51.522;7.266;2023-05-10T02:39:53;17.90;99.90
1447;DHT22;717;51.522;7.266;2023-05-10T02:42:24;18.00;99.90
1447;DHT22;717;51.522;7.266;2023-05-10T02:44:59;18.00;99.90
1447;DHT22;717;51.522;7.266;2023-05-10T02:47:28;18.00;99.90
1447;DHT22;717;51.522;7.266;2023-05-10T02:50:00;18.00;99.90
1447;DHT22;717;51.522;7.266;2023-05-10T02:52:30;18.00;99.90
1447;DHT22;717;51.522;7.266;2023-05-10T02:55:05;18.00;99.90
1447;DHT22;717;51.522;7.266;2023-05-10T02:57:40;18.00;99.90
1447;DHT22;717;51.522;7.266;2023-05-10T03:00:11;18.00;99.90
1447;DHT22;717;51.522;7.266;2023-05-10T03:02:39;18.00;99.90
1447;DHT22;717;51.522;7.266;2023-05-10T03:05:11;17.90;99.90
1447;DHT22;717;51.522;7.266;2023-05-10T03:07:39;17.90;99.90
1447;DHT22;717;51.522;7.266;2023-05-10T03:10:09;17.90;99.90
1447;DHT22;717;51.522;7.266;2023-05-10T03:12:57;17.90;99.90
1447;DHT22;717;51.522;7.266;2023-05-10T03:15:37;17.90;99.90
1447;DHT22;717;51.522;7.266;2023-05-10T03:18:12;17.90;99.90
1447;DHT22;717;51.522;7.266;2023-05-10T03:20:48;17.80;99.90
1447;DHT22;717;51.522;7.266;2023-05-10T03:23:21;17.80;99.90
1447;DHT22;717;51.522;7.266;2023-05-10T03:25:51;17.80;99.90
1447;DHT22;717;51.522;7.266;2023-05-10T03:28:20;17.70;99.90
1447;DHT22;717;51.522;7.266;2023-05-10T03:30:49;17.70;99.90
1447;DHT22;717;51.522;7.266;2023-05-10T03:33:18;17.60;99.90
1447;DHT22;717;51.522;7.266;2023-05-10T03:35:50;17.60;99.90
1447;DHT22;717;51.522;7.266;2023-05-10T03:38:18;17.60;99.90
1447;DHT22;717;51.522;7.266;2023-05-10T03:40:47;17.50;99.90
1447;DHT22;717;51.522;7.266;2023-05-10T03:43:15;17.60;99.90
1447;DHT22;717;51.522;7.266;2023-05-10T03:45:44;17.60;99.90
1447;DHT22;717;51.522;7.266;2023-05-10T03:48:12;17.60;99.90
1447;DHT22;717;51.522;7.266;2023-05-10T03:50:41;17.60;99.90
1447;DHT22;717;51.522;7.266;2023-05-10T03:53:12;17.60;99.90
1447;DHT22;717;51.522;7.266;2023-05-10T03:55:41;17.60;99.90
1447;DHT22;717;51.522;7.266;2023-05-10T03:58:10;17.60;99.90
1447;DHT22;717;51.522;7.266;2023-05-10T04:00:39;17.60;99.90
1447;DHT22;717;51.522;7.266;2023-05-10T04:03:10;17.60;99.90
1447;DHT22;717;51.522;7.266;2023-05-10T04:05:39;17.60;99.90
1447;DHT22;717;51.522;7.266;2023-05-10T04:08:08;17.60;99.90
1447;DHT22;717;51.522;7.266;2023-05-10T04:10:39;17.60;99.90
1447;DHT22;717;51.522;7.266;2023-05-10T04:13:07;17.60;99.90
1447;DHT22;717;51.522;7.266;2023-05-10T04:15:36;17.60;99.90
1447;DHT22;717;51.522;7.266;2023-05-10T04:18:05;17.60;99.90
1447;DHT22;717;51.522;7.266;2023-05-10T04:20:34;17.60;99.90
1447;DHT22;717;51.522;7.266;2023-05-10T04:23:02;17.60;99.90
1447;DHT22;717;51.522;7.266;2023-05-10T04:25:33;17.60;99.90
1447;DHT22;717;51.522;7.266;2023-05-10T04:28:05;17.70;99.90
1447;DHT22;717;51.522;7.266;2023-05-10T04:30:34;17.70;99.90
1447;DHT22;717;51.522;7.266;2023-05-10T04:33:03;17.70;99.90
1447;DHT22;717;51.522;7.266;2023-05-10T04:35:31;17.60;99.90
1447;DHT22;717;51.522;7.266;2023-05-10T04:38:00;17.60;99.90
1447;DHT22;717;51.522;7.266;2023-05-10T04:40:28;17.60;99.90
1447;DHT22;717;51.522;7.266;2023-05-10T04:42:57;17.60;99.90
1447;DHT22;717;51.522;7.266;2023-05-10T04:45:28;17.60;99.90
1447;DHT22;717;51.522;7.266;2023-05-10T04:47:57;17.60;99.90
1447;DHT22;717;51.522;7.266;2023-05-10T04:50:25;17.50;99.90
1447;DHT22;717;51.522;7.266;2023-05-10T04:52:54;17.50;99.90
1447;DHT22;717;51.522;7.266;2023-05-10T04:55:22;17.60;99.90
1447;DHT22;717;51.522;7.266;2023-05-10T04:57:52;17.60;99.90
1447;DHT22;717;51.522;7.266;2023-05-10T05:00:22;17.60;99.90
1447;DHT22;717;51.522;7.266;2023-05-10T05:02:53;17.60;99.90
1447;DHT22;717;51.522;7.266;2023-05-10T05:05:22;17.60;99.90
1447;DHT22;717;51.522;7.266;2023-05-10T05:07:51;17.50;99.90
1447;DHT22;717;51.522;7.266;2023-05-10T05:10:19;17.50;99.90
1447;DHT22;717;51.522;7.266;2023-05-10T05:12:48;17.60;99.90
1447;DHT22;717;51.522;7.266;2023-05-10T05:15:16;17.60;99.90
1447;DHT22;717;51.522;7.266;2023-05-10T05:17:45;17.60;99.90
1447;DHT22;717;51.522;7.266;2023-05-10T05:20:16;17.60;99.90
1447;DHT22;717;51.522;7.266;2023-05-10T05:22:45;17.60;99.90
1447;DHT22;717;51.522;7.266;2023-05-10T05:25:14;17.60;99.90
1447;DHT22;717;51.522;7.266;2023-05-10T05:27:43;17.60;99.90
1447;DHT22;717;51.522;7.266;2023-05-10T05:30:12;17.60;99.90
1447;DHT22;717;51.522;7.266;2023-05-10T05:32:41;17.60;99.90
1447;DHT22;717;51.522;7.266;2023-05-10T05:35:09;17.60;99.90
1447;DHT22;717;51.522;7.266;2023-05-10T05:37:40;17.60;99.90
1447;DHT22;717;51.522;7.266;2023-05-10T05:40:12;17.50;99.90
1447;DHT22;717;51.522;7.266;2023-05-10T05:42:41;17.50;99.90
1447;DHT22;717;51.522;7.266;2023-05-10T05:45:10;17.50;99.90
1447;DHT22;717;51.522;7.266;2023-05-10T05:47:40;17.60;99.90
1447;DHT22;717;51.522;7.266;2023-05-10T05:50:10;17.60;99.90
1447;DHT22;717;51.522;7.266;2023-05-10T05:52:41;17.60;99.90
1447;DHT22;717;51.522;7.266;2023-05-10T05:55:09;17.60;99.90
1447;DHT22;717;51.522;7.266;2023-05-10T05:57:38;17.60;99.90
1447;DHT22;717;51.522;7.266;2023-05-10T06:00:08;17.50;99.90
1447;DHT22;717;51.522;7.266;2023-05-10T06:02:36;17.60;99.90
1447;DHT22;717;51.522;7.266;2023-05-10T06:05:06;17.50;99.90
1447;DHT22;717;51.522;7.266;2023-05-10T06:07:35;17.50;99.90
1447;DHT22;717;51.522;7.266;2023-05-10T06:10:07;17.50;99.90
1447;DHT22;717;51.522;7.266;2023-05-10T06:12:36;17.50;99.90
1447;DHT22;717;51.522;7.266;2023-05-10T06:15:05;17.50;99.90
1447;DHT22;717;51.522;7.266;2023-05-10T06:17:34;17.50;99.90
1447;DHT22;717;51.522;7.266;2023-05-10T06:20:05;17.50;99.90
1447;DHT22;717;51.522;7.266;2023-05-10T06:22:34;17.60;99.90
1447;DHT22;717;51.522;7.266;2023-05-10T06:25:02;17.50;99.90
1447;DHT22;717;51.522;7.266;2023-05-10T06:27:34;17.50;99.90
1447;DHT22;717;51.522;7.266;2023-05-10T06:30:03;17.50;99.90
1447;DHT22;717;51.522;7.266;2023-05-10T06:32:32;17.50;99.90
1447;DHT22;717;51.522;7.266;2023-05-10T06:35:00;17.50;99.90
1447;DHT22;717;51.522;7.266;2023-05-10T06:37:29;17.50;99.90
1447;DHT22;717;51.522;7.266;2023-05-10T06:39:57;17.40;99.90
1447;DHT22;717;51.522;7.266;2023-05-10T06:42:26;17.50;99.90
1447;DHT22;717;51.522;7.266;2023-05-10T06:44:57;17.50;99.90
1447;DHT22;717;51.522;7.266;2023-05-10T06:47:26;17.60;99.90
1447;DHT22;717;51.522;7.266;2023-05-10T06:49:55;17.60;99.90
1447;DHT22;717;51.522;7.266;2023-05-10T06:52:24;17.70;99.90
1447;DHT22;717;51.522;7.266;2023-05-10T06:54:52;17.70;99.90
1447;DHT22;717;51.522;7.266;2023-05-10T06:57:21;17.70;99.90
1447;DHT22;717;51.522;7.266;2023-05-10T06:59:50;17.70;99.90
1447;DHT22;717;51.522;7.266;2023-05-10T07:02:21;17.70;99.90
1447;DHT22;717;51.522;7.266;2023-05-10T07:04:50;17.70;99.90
1447;DHT22;717;51.522;7.266;2023-05-10T07:07:18;17.70;99.90
1447;DHT22;717;51.522;7.266;2023-05-10T07:09:47;17.70;99.90
1447;DHT22;717;51.522;7.266;2023-05-10T07:12:16;17.70;99.90
1447;DHT22;717;51.522;7.266;2023-05-10T07:14:45;17.80;99.90
1447;DHT22;717;51.522;7.266;2023-05-10T07:17:14;17.80;99.90
1447;DHT22;717;51.522;7.266;2023-05-10T07:19:45;17.80;99.90
1447;DHT22;717;51.522;7.266;2023-05-10T07:22:14;17.80;99.90
1447;DHT22;717;51.522;7.266;2023-05-10T07:24:43;17.80;99.90
1447;DHT22;717;51.522;7.266;2023-05-10T07:27:12;17.80;99.90
1447;DHT22;717;51.522;7.266;2023-05-10T07:29:41;17.90;99.90
1447;DHT22;717;51.522;7.266;2023-05-10T07:32:09;17.90;99.90
1447;DHT22;717;51.522;7.266;2023-05-10T07:34:38;17.90;99.90
1447;DHT22;717;51.522;7.266;2023-05-10T07:37:09;17.90;99.90
1447;DHT22;717;51.522;7.266;2023-05-10T07:39:38;18.00;99.90
1447;DHT22;717;51.522;7.266;2023-05-10T07:42:06;18.00;99.90
1447;DHT22;717;51.522;7.266;2023-05-10T07:44:35;18.00;99.90
1447;DHT22;717;51.522;7.266;2023-05-10T07:47:03;18.00;99.90
1447;DHT22;717;51.522;7.266;2023-05-10T07:49:32;18.00;99.90
1447;DHT22;717;51.522;7.266;2023-05-10T07:52:02;17.90;99.90
1447;DHT22;717;51.522;7.266;2023-05-10T07:54:33;17.90;99.90
1447;DHT22;717;51.522;7.266;2023-05-10T07:57:03;17.90;99.90
1447;DHT22;717;51.522;7.266;2023-05-10T07:59:31;17.90;99.90
1447;DHT22;717;51.522;7.266;2023-05-10T08:02:00;18.00;99.90
1447;DHT22;717;51.522;7.266;2023-05-10T08:04:29;18.10;99.90
1447;DHT22;717;51.522;7.266;2023-05-10T08:06:57;18.10;99.90
1447;DHT22;717;51.522;7.266;2023-05-10T08:09:26;18.20;99.90
1447;DHT22;717;51.522;7.266;2023-05-10T08:11:57;18.20;99.90
1447;DHT22;717;51.522;7.266;2023-05-10T08:14:26;18.30;99.90
1447;DHT22;717;51.522;7.266;2023-05-10T08:16:55;18.40;99.90
1447;DHT22;717;51.522;7.266;2023-05-10T08:19:24;18.40;99.90
1447;DHT22;717;51.522;7.266;2023-05-10T08:21:53;18.40;99.90
1447;DHT22;717;51.522;7.266;2023-05-10T08:24:22;18.40;99.90
1447;DHT22;717;51.522;7.266;2023-05-10T08:26:50;18.40;99.90
1447;DHT22;717;51.522;7.266;2023-05-10T08:29:21;18.40;99.90
1447;DHT22;717;51.522;7.266;2023-05-10T08:31:50;18.40;99.90
1447;DHT22;717;51.522;7.266;2023-05-10T08:34:19;18.40;99.90
1447;DHT22;717;51.522;7.266;2023-05-10T08:36:47;18.40;99.90
1447;DHT22;717;51.522;7.266;2023-05-10T08:39:16;18.40;99.90
1447;DHT22;717;51.522;7.266;2023-05-10T08:41:47;18.50;99.90
1447;DHT22;717;51.522;7.266;2023-05-10T08:44:16;18.50;99.90
1447;DHT22;717;51.522;7.266;2023-05-10T08:46:49;18.40;99.90
1447;DHT22;717;51.522;7.266;2023-05-10T08:49:21;18.40;99.90
1447;DHT22;717;51.522;7.266;2023-05-10T08:51:54;18.40;99.90
1447;DHT22;717;51.522;7.266;2023-05-10T08:54:24;18.40;99.90
1447;DHT22;717;51.522;7.266;2023-05-10T08:56:53;18.50;99.90
1447;DHT22;717;51.522;7.266;2023-05-10T08:59:22;18.50;99.90
1447;DHT22;717;51.522;7.266;2023-05-10T09:01:54;18.40;99.90
1447;DHT22;717;51.522;7.266;2023-05-10T09:04:24;18.40;99.90
1447;DHT22;717;51.522;7.266;2023-05-10T09:06:53;18.40;99.90
1447;DHT22;717;51.522;7.266;2023-05-10T09:09:22;18.40;99.90
1447;DHT22;717;51.522;7.266;2023-05-10T09:11:51;18.40;99.90
1447;DHT22;717;51.522;7.266;2023-05-10T09:14:22;18.40;99.90
1447;DHT22;717;51.522;7.266;2023-05-10T09:16:54;18.40;99.90
1447;DHT22;717;51.522;7.266;2023-05-10T09:19:23;18.40;99.90
1447;DHT22;717;51.522;7.266;2023-05-10T09:21:51;18.40;99.90
1447;DHT22;717;51.522;7.266;2023-05-10T09:24:25;18.40;99.90
1447;DHT22;717;51.522;7.266;2023-05-10T09:26:56;18.50;99.90
1447;DHT22;717;51.522;7.266;2023-05-10T09:29:25;18.50;99.90
1447;DHT22;717;51.522;7.266;2023-05-10T09:31:56;18.50;99.90
1447;DHT22;717;51.522;7.266;2023-05-10T09:34:29;18.50;99.90
1447;DHT22;717;51.522;7.266;2023-05-10T09:36:59;18.60;99.90
1447;DHT22;717;51.522;7.266;2023-05-10T09:39:32;18.60;99.90
1447;DHT22;717;51.522;7.266;2023-05-10T09:42:03;18.70;99.90
1447;DHT22;717;51.522;7.266;2023-05-10T09:44:32;18.70;99.90
1447;DHT22;717;51.522;7.266;2023-05-10T09:47:04;18.70;99.90
1447;DHT22;717;51.522;7.266;2023-05-10T09:49:33;18.70;99.90
1447;DHT22;717;51.522;7.266;2023-05-10T09:52:04;18.70;99.90
1447;DHT22;717;51.522;7.266;2023-05-10T09:54:34;18.70;99.90
1447;DHT22;717;51.522;7.266;2023-05-10T09:57:02;18.70;99.90
1447;DHT22;717;51.522;7.266;2023-05-10T09:59:33;18.70;99.90
1447;DHT22;717;51.522;7.266;2023-05-10T10:02:05;18.70;99.90
1447;DHT22;717;51.522;7.266;2023-05-10T10:04:39;18.70;99.90
1447;DHT22;717;51.522;7.266;2023-05-10T10:07:07;18.70;99.90
1447;DHT22;717;51.522;7.266;2023-05-10T10:09:36;18.80;99.90
1447;DHT22;717;51.522;7.266;2023-05-10T10:12:05;18.80;99.90
1447;DHT22;717;51.522;7.266;2023-05-10T10:14:34;18.80;99.90
1447;DHT22;717;51.522;7.266;2023-05-10T10:17:06;18.80;99.90
1447;DHT22;717;51.522;7.266;2023-05-10T10:19:35;18.80;99.90
1447;DHT22;717;51.522;7.266;2023-05-10T10:22:04;18.80;99.90
1447;DHT22;717;51.522;7.266;2023-05-10T10:24:33;18.90;99.90
1447;DHT22;717;51.522;7.266;2023-05-10T10:27:09;18.90;99.90
1447;DHT22;717;51.522;7.266;2023-05-10T10:29:47;18.90;99.90
1447;DHT22;717;51.522;7.266;2023-05-10T10:32:27;18.90;99.90
1447;DHT22;717;51.522;7.266;2023-05-10T10:34:59;18.90;99.90
1447;DHT22;717;51.522;7.266;2023-05-10T10:37:43;18.90;99.90
1447;DHT22;717;51.522;7.266;2023-05-10T10:40:26;18.90;99.90
1447;DHT22;717;51.522;7.266;2023-05-10T10:42:55;18.80;99.90
1447;DHT22;717;51.522;7.266;2023-05-10T10:45:25;18.80;99.90
1447;DHT22;717;51.522;7.266;2023-05-10T10:48:24;18.80;99.90
1447;DHT22;717;51.522;7.266;2023-05-10T10:50:56;18.90;99.90
1447;DHT22;717;51.522;7.266;2023-05-10T10:53:26;18.80;99.90
1447;DHT22;717;51.522;7.266;2023-05-10T10:56:05;18.80;99.90
1447;DHT22;717;51.522;7.266;2023-05-10T10:58:36;18.90;99.90
1447;DHT22;717;51.522;7.266;2023-05-10T11:01:12;18.90;99.90
1447;DHT22;717;51.522;7.266;2023-05-10T11:06:38;18.90;99.90
1447;DHT22;717;51.522;7.266;2023-05-10T11:09:08;18.90;99.90
1447;DHT22;717;51.522;7.266;2023-05-10T11:11:49;19.00;99.90
1447;DHT22;717;51.522;7.266;2023-05-10T11:14:21;19.00;99.90
1447;DHT22;717;51.522;7.266;2023-05-10T11:16:50;19.00;99.90
1447;DHT22;717;51.522;7.266;2023-05-10T11:19:21;19.10;99.90
1447;DHT22;717;51.522;7.266;2023-05-10T11:22:13;19.10;99.90
1447;DHT22;717;51.522;7.266;2023-05-10T11:24:56;19.10;99.90
1447;DHT22;717;51.522;7.266;2023-05-10T11:27:24;19.10;99.90
1447;DHT22;717;51.522;7.266;2023-05-10T11:29:53;19.20;99.90
1447;DHT22;717;51.522;7.266;2023-05-10T11:32:22;19.20;99.90
1447;DHT22;717;51.522;7.266;2023-05-10T11:34:53;19.20;99.90
1447;DHT22;717;51.522;7.266;2023-05-10T11:37:22;19.20;99.90
1447;DHT22;717;51.522;7.266;2023-05-10T11:39:50;19.20;99.90
1447;DHT22;717;51.522;7.266;2023-05-10T11:42:19;19.30;99.90
1447;DHT22;717;51.522;7.266;2023-05-10T11:44:48;19.30;99.90
1447;DHT22;717;51.522;7.266;2023-05-10T11:47:16;19.30;99.90
1447;DHT22;717;51.522;7.266;2023-05-10T11:49:45;19.30;99.90
1447;DHT22;717;51.522;7.266;2023-05-10T11:52:18;19.30;99.90
1447;DHT22;717;51.522;7.266;2023-05-10T11:54:51;19.30;99.90
1447;DHT22;717;51.522;7.266;2023-05-10T11:57:20;19.40;99.90
1447;DHT22;717;51.522;7.266;2023-05-10T11:59:53;19.40;99.90
1447;DHT22;717;51.522;7.266;2023-05-10T12:02:22;19.40;99.90
1447;DHT22;717;51.522;7.266;2023-05-10T12:04:50;19.40;99.90
1447;DHT22;717;51.522;7.266;2023-05-10T12:07:22;19.50;99.90
1447;DHT22;717;51.522;7.266;2023-05-10T12:10:07;19.50;99.90
1447;DHT22;717;51.522;7.266;2023-05-10T12:12:38;19.50;99.90
1447;DHT22;717;51.522;7.266;2023-05-10T12:15:11;19.50;99.90
1447;DHT22;717;51.522;7.266;2023-05-10T12:17:39;19.50;99.90
1447;DHT22;717;51.522;7.266;2023-05-10T12:20:18;19.50;99.90
1447;DHT22;717;51.522;7.266;2023-05-10T12:22:51;19.50;99.90
1447;DHT22;717;51.522;7.266;2023-05-10T12:25:21;19.50;99.90
1447;DHT22;717;51.522;7.266;2023-05-10T12:27:54;19.50;99.90
1447;DHT22;717;51.522;7.266;2023-05-10T12:30:24;19.50;99.90
1447;DHT22;717;51.522;7.266;2023-05-10T12:32:53;19.50;99.90
1447;DHT22;717;51.522;7.266;2023-05-10T12:35:23;19.50;99.90
1447;DHT22;717;51.522;7.266;2023-05-10T12:37:54;19.50;99.90
1447;DHT22;717;51.522;7.266;2023-05-10T12:40:22;19.50;99.90
1447;DHT22;717;51.522;7.266;2023-05-10T12:42:51;19.50;99.90
1447;DHT22;717;51.522;7.266;2023-05-10T12:45:20;19.50;99.90
1447;DHT22;717;51.522;7.266;2023-05-10T12:47:48;19.50;99.90
1447;DHT22;717;51.522;7.266;2023-05-10T12:50:17;19.60;99.90
1447;DHT22;717;51.522;7.266;2023-05-10T12:52:46;19.60;99.90
1447;DHT22;717;51.522;7.266;2023-05-10T12:55:17;19.60;99.90
1447;DHT22;717;51.522;7.266;2023-05-10T12:57:46;19.60;99.90
1447;DHT22;717;51.522;7.266;2023-05-10T13:00:15;19.60;99.90
1447;DHT22;717;51.522;7.266;2023-05-10T13:02:44;19.60;99.90
1447;DHT22;717;51.522;7.266;2023-05-10T13:05:12;19.60;99.90
1447;DHT22;717;51.522;7.266;2023-05-10T13:07:41;19.60;99.90
1447;DHT22;717;51.522;7.266;2023-05-10T13:10:10;19.60;99.90
1447;DHT22;717;51.522;7.266;2023-05-10T13:12:41;19.60;99.90
1447;DHT22;717;51.522;7.266;2023-05-10T13:15:10;19.60;99.90
1447;DHT22;717;51.522;7.266;2023-05-10T13:17:38;19.60;99.90
1447;DHT22;717;51.522;7.266;2023-05-10T13:20:09;19.60;99.90
1447;DHT22;717;51.522;7.266;2023-05-10T13:22:37;19.60;99.90
1447;DHT22;717;51.522;7.266;2023-05-10T13:25:07;19.70;99.90
1447;DHT22;717;51.522;7.266;2023-05-10T13:27:36;19.70;99.90
1447;DHT22;717;51.522;7.266;2023-05-10T13:30:08;19.80;99.90
1447;DHT22;717;51.522;7.266;2023-05-10T13:32:37;19.90;99.90
1447;DHT22;717;51.522;7.266;2023-05-10T13:35:07;19.90;99.90
1447;DHT22;717;51.522;7.266;2023-05-10T13:37:36;19.90;99.90
1447;DHT22;717;51.522;7.266;2023-05-10T13:40:06;20.00;99.90
1447;DHT22;717;51.522;7.266;2023-05-10T13:42:34;20.00;99.90
1447;DHT22;717;51.522;7.266;2023-05-10T13:45:04;20.10;99.90
1447;DHT22;717;51.522;7.266;2023-05-10T13:47:35;20.20;99.90
1447;DHT22;717;51.522;7.266;2023-05-10T13:50:05;20.30;99.90
1447;DHT22;717;51.522;7.266;2023-05-10T13:52:34;20.30;99.90
1447;DHT22;717;51.522;7.266;2023-05-10T13:55:03;20.40;99.90
1447;DHT22;717;51.522;7.266;2023-05-10T13:57:32;20.40;99.90
1447;DHT22;717;51.522;7.266;2023-05-10T14:00:01;20.40;99.90
1447;DHT22;717;51.522;7.266;2023-05-10T14:02:30;20.50;99.90
1447;DHT22;717;51.522;7.266;2023-05-10T14:05:01;20.60;99.90
1447;DHT22;717;51.522;7.266;2023-05-10T14:07:30;20.60;99.90
1447;DHT22;717;51.522;7.266;2023-05-10T14:09:59;20.60;99.90
1447;DHT22;717;51.522;7.266;2023-05-10T14:12:28;20.60;99.90
1447;DHT22;717;51.522;7.266;2023-05-10T14:14:57;20.60;99.90
1447;DHT22;717;51.522;7.266;2023-05-10T14:17:25;20.60;99.90
1447;DHT22;717;51.522;7.266;2023-05-10T14:19:54;20.70;99.90
1447;DHT22;717;51.522;7.266;2023-05-10T14:22:25;20.80;99.90
1447;DHT22;717;51.522;7.266;2023-05-10T14:24:54;20.90;99.90
1447;DHT22;717;51.522;7.266;2023-05-10T14:27:22;20.90;99.90
1447;DHT22;717;51.522;7.266;2023-05-10T14:29:51;21.00;99.90
1447;DHT22;717;51.522;7.266;2023-05-10T14:32:20;21.00;99.90
1447;DHT22;717;51.522;7.266;2023-05-10T14:34:48;21.10;99.90
1447;DHT22;717;51.522;7.266;2023-05-10T14:37:17;21.10;99.90
1447;DHT22;717;51.522;7.266;2023-05-10T14:39:49;21.10;99.90
1447;DHT22;717;51.522;7.266;2023-05-10T14:42:18;21.20;99.90
1447;DHT22;717;51.522;7.266;2023-05-10T14:44:46;21.30;99.90
1447;DHT22;717;51.522;7.266;2023-05-10T14:47:15;21.30;99.90
1447;DHT22;717;51.522;7.266;2023-05-10T14:49:44;21.40;99.90
1447;DHT22;717;51.522;7.266;2023-05-10T14:52:12;21.50;99.90
1447;DHT22;717;51.522;7.266;2023-05-10T14:54:41;21.40;99.90
1447;DHT22;717;51.522;7.266;2023-05-10T14:57:12;21.40;99.90
1447;DHT22;717;51.522;7.266;2023-05-10T14:59:41;21.40;99.90
1447;DHT22;717;51.522;7.266;2023-05-10T15:02:10;21.40;99.90
1447;DHT22;717;51.522;7.266;2023-05-10T15:04:39;21.50;99.90
1447;DHT22;717;51.522;7.266;2023-05-10T15:07:07;21.50;99.90
1447;DHT22;717;51.522;7.266;2023-05-10T15:09:39;21.60;99.90
1447;DHT22;717;51.522;7.266;2023-05-10T15:12:08;21.60;99.90
1447;DHT22;717;51.522;7.266;2023-05-10T15:14:39;21.70;99.90
1447;DHT22;717;51.522;7.266;2023-05-10T15:17:08;21.70;99.90
1447;DHT22;717;51.522;7.266;2023-05-10T15:19:36;21.70;99.90
1447;DHT22;717;51.522;7.266;2023-05-10T15:22:05;21.70;99.90
1447;DHT22;717;51.522;7.266;2023-05-10T15:24:34;21.70;99.90
1447;DHT22;717;51.522;7.266;2023-05-10T15:27:02;21.70;99.90
1447;DHT22;717;51.522;7.266;2023-05-10T15:29:31;21.70;99.90
1447;DHT22;717;51.522;7.266;2023-05-10T15:32:04;21.60;99.90
1447;DHT22;717;51.522;7.266;2023-05-10T15:34:32;21.60;99.90
1447;DHT22;717;51.522;7.266;2023-05-10T15:37:01;21.50;99.90
1447;DHT22;717;51.522;7.266;2023-05-10T15:39:30;21.50;99.90
1447;DHT22;717;51.522;7.266;2023-05-10T15:41:58;21.50;99.90
1447;DHT22;717;51.522;7.266;2023-05-10T15:44:28;21.50;99.90
1447;DHT22;717;51.522;7.266;2023-05-10T15:46:57;21.50;99.90
1447;DHT22;717;51.522;7.266;2023-05-10T15:49:28;21.60;99.90
1447;DHT22;717;51.522;7.266;2023-05-10T15:51:57;21.60;99.90
1447;DHT22;717;51.522;7.266;2023-05-10T15:54:25;21.70;99.90
1447;DHT22;717;51.522;7.266;2023-05-10T15:56:54;21.80;99.90
1447;DHT22;717;51.522;7.266;2023-05-10T15:59:23;21.80;99.90
1447;DHT22;717;51.522;7.266;2023-05-10T16:01:51;21.80;99.90
1447;DHT22;717;51.522;7.266;2023-05-10T16:04:20;21.90;99.90
1447;DHT22;717;51.522;7.266;2023-05-10T16:06:51;21.90;99.90
1447;DHT22;717;51.522;7.266;2023-05-10T16:09:20;21.90;99.90
1447;DHT22;717;51.522;7.266;2023-05-10T16:11:48;21.90;99.90
1447;DHT22;717;51.522;7.266;2023-05-10T16:14:17;21.90;99.90
1447;DHT22;717;51.522;7.266;2023-05-10T16:16:47;21.90;99.90
1447;DHT22;717;51.522;7.266;2023-05-10T16:19:16;21.80;99.90
1447;DHT22;717;51.522;7.266;2023-05-10T16:21:45;21.80;99.90
1447;DHT22;717;51.522;7.266;2023-05-10T16:24:17;21.80;99.90
1447;DHT22;717;51.522;7.266;2023-05-10T16:26:46;21.80;99.90
1447;DHT22;717;51.522;7.266;2023-05-10T16:29:14;21.70;99.90
1447;DHT22;717;51.522;7.266;2023-05-10T16:31:43;21.70;99.90
1447;DHT22;717;51.522;7.266;2023-05-10T16:34:12;21.60;99.90
1447;DHT22;717;51.522;7.266;2023-05-10T16:36:40;21.60;99.90
1447;DHT22;717;51.522;7.266;2023-05-10T16:39:09;21.60;99.90
1447;DHT22;717;51.522;7.266;2023-05-10T16:41:40;21.60;99.90